Aeroboteco Virtual Airlines! Uma nuvem a frente.



 INFORMAÇÕES METEOROLÓGICAS
METAR FOR SBCZ
ADDS - METARS form results

(1402 UTC 22 March 2019)
Data provider http://aviationweather.gov/metar/data/
 
METAR text: SBCZ 221400Z 00000KT 9999 FEW010 BKN100 27/25 Q1014
Conditions at: SBCZ (CRUZEIRO DO SUL , BR) observed 1400 UTC 22 March 2019
Temperature: 27.0°C (81°F)
Dewpoint: 25.0°C (77°F) [RH = 89%]
Pressure (altimeter): 29.94 inches Hg (1014.0 mb)
Winds: calm
Visibility: 6 or more miles (10+ km)
Ceiling: 10000 feet AGL
Clouds: few clouds at 1000 feet AGL
broken clouds at 10000 feet AGL
Weather: no significant weather observed at this time

 MAPA DO AEROPORTO

 INFORMAÇÕES DA PISTA
Pista 10 Tamanho da pista 7874 ft Largura da pista 148 ft
Elevação da pista 0 ft Ranhura da pista 0 ft Proa da pista 0
Pista 28 Tamanho da pista 7874 ft Largura da pista 148 ft
Elevação da pista 0 ft Ranhura da pista 0 ft Proa da pista 0

 FREQUÊNCIAS DO AEROPORTO
Tipo AFIS Nome AFIS Frequência 125.7 MHZ

 AUXÍLIOS DE NAVEGAÇÃO PRÓXIMOS AO AEROPORTO
Tipo VOR-DME Nome Cruzeiro Do Sul Frequência 112000 KHZ
Tipo NDB Nome Cruzeiro Do Sul Frequência 260 KHZ